Time;durP1;ratioP1;P1;durP2;ratioP2;P2;SDS_P1;SDS_P2;PMS_P1;PMS_P2;Temp;Humidity;BMP_temperature;BMP_pressure;BME280_temperature;BME280_humidity;BME280_pressure;Samples;Min_cycle;Max_cycle;Signal;HPM_P1;HPM_P2
2022/04/23 00:01:19;;;;;;;6.15;1.80;;;12.50;99.90;;;;;;4999597;28;20505;-60
2022/04/23 00:03:45;;;;;;;5.35;2.38;;;12.40;99.90;;;;;;4996294;28;20034;-61
2022/04/23 00:06:11;;;;;;;3.90;1.92;;;12.40;99.90;;;;;;4998817;28;20042;-62
2022/04/23 00:08:36;;;;;;;6.57;2.08;;;12.40;99.90;;;;;;4997288;28;20103;-60
2022/04/23 00:11:02;;;;;;;9.63;1.98;;;12.30;99.90;;;;;;4997150;28;20096;-60
2022/04/23 00:13:28;;;;;;;4.78;2.00;;;12.40;99.90;;;;;;4998343;28;20038;-62
2022/04/23 00:15:53;;;;;;;4.88;2.47;;;12.30;99.90;;;;;;4996075;28;20034;-61
2022/04/23 00:18:19;;;;;;;5.53;2.50;;;12.30;99.90;;;;;;4999294;28;20069;-60
2022/04/23 00:20:48;;;;;;;4.93;2.35;;;12.20;99.90;;;;;;4996540;28;20034;-60
2022/04/23 00:23:14;;;;;;;5.10;2.22;;;12.20;99.90;;;;;;4998155;28;20074;-61
2022/04/23 00:25:41;;;;;;;7.72;3.10;;;12.20;99.90;;;;;;4997085;28;20083;-63
2022/04/23 00:28:08;;;;;;;4.45;2.55;;;12.20;99.90;;;;;;4996534;28;20037;-62
2022/04/23 00:30:34;;;;;;;5.63;2.70;;;12.20;99.90;;;;;;4997394;28;20044;-60
2022/04/23 00:33:00;;;;;;;8.88;2.95;;;12.20;99.90;;;;;;5002576;28;20038;-61
2022/04/23 00:35:26;;;;;;;7.45;3.47;;;12.20;99.90;;;;;;5005472;28;20048;-61
2022/04/23 00:37:52;;;;;;;6.00;2.60;;;12.10;99.90;;;;;;5000739;28;20039;-61
2022/04/23 00:40:18;;;;;;;8.50;3.30;;;12.00;99.90;;;;;;5002355;28;20042;-61
2022/04/23 00:42:45;;;;;;;6.47;2.78;;;12.10;99.90;;;;;;5004573;28;20045;-60
2022/04/23 00:45:11;;;;;;;5.50;2.80;;;12.10;99.90;;;;;;5005137;28;20046;-60
2022/04/23 00:47:38;;;;;;;9.88;3.72;;;12.10;99.90;;;;;;5001243;28;20063;-61
2022/04/23 00:50:04;;;;;;;6.18;2.92;;;12.10;99.90;;;;;;5003858;28;20137;-61
2022/04/23 00:52:31;;;;;;;10.55;3.42;;;12.00;99.90;;;;;;5005483;28;20072;-61
2022/04/23 00:54:57;;;;;;;6.53;3.05;;;12.00;99.90;;;;;;5006406;28;20033;-60
2022/04/23 00:57:22;;;;;;;7.22;3.13;;;12.00;99.90;;;;;;5001912;28;20043;-60
2022/04/23 00:59:49;;;;;;;6.95;3.17;;;12.00;99.90;;;;;;5005804;28;20033;-62
2022/04/23 01:02:15;;;;;;;7.35;3.72;;;11.90;99.90;;;;;;5001922;28;20104;-61
2022/04/23 01:04:41;;;;;;;13.32;3.63;;;11.90;99.90;;;;;;5003801;28;20547;-61
2022/04/23 01:07:08;;;;;;;13.02;3.88;;;11.90;99.90;;;;;;5003373;28;20072;-60
2022/04/23 01:09:34;;;;;;;9.88;3.92;;;11.80;99.90;;;;;;5003684;28;20052;-62
2022/04/23 01:12:02;;;;;;;7.53;4.35;;;11.80;99.90;;;;;;5003956;28;20034;-63
2022/04/23 01:14:28;;;;;;;7.40;3.72;;;11.80;99.90;;;;;;5002543;28;20369;-61
2022/04/23 01:16:54;;;;;;;8.23;3.70;;;11.80;99.90;;;;;;5003563;28;20513;-60
2022/04/23 01:19:19;;;;;;;8.23;4.30;;;11.80;99.90;;;;;;5000672;28;20038;-61
2022/04/23 01:21:45;;;;;;;6.70;3.42;;;11.80;99.90;;;;;;5002035;28;20042;-60
2022/04/23 01:24:10;;;;;;;5.95;3.47;;;11.70;99.90;;;;;;5004295;28;20121;-61
2022/04/23 01:26:36;;;;;;;11.70;4.15;;;11.70;99.90;;;;;;5002893;28;20049;-61
2022/04/23 01:29:01;;;;;;;8.20;4.03;;;11.70;99.90;;;;;;5002123;28;20034;-60
2022/04/23 01:31:27;;;;;;;10.05;4.70;;;11.70;99.90;;;;;;5000895;28;20049;-61
2022/04/23 01:33:53;;;;;;;9.25;3.70;;;11.70;99.90;;;;;;5004257;28;20041;-62
2022/04/23 01:36:19;;;;;;;9.60;4.03;;;11.60;99.90;;;;;;5001676;28;20045;-60
2022/04/23 01:38:45;;;;;;;8.07;3.83;;;11.60;99.90;;;;;;5000420;28;20115;-61
2022/04/23 01:41:11;;;;;;;12.60;5.00;;;11.60;99.90;;;;;;5004952;28;20497;-61
2022/04/23 01:43:37;;;;;;;7.72;3.78;;;11.50;99.90;;;;;;4998976;28;20099;-61
2022/04/23 01:46:02;;;;;;;8.05;4.40;;;11.50;99.90;;;;;;4999027;28;20144;-61
2022/04/23 01:48:28;;;;;;;10.95;4.95;;;11.50;99.90;;;;;;4999605;28;20038;-60
2022/04/23 01:50:55;;;;;;;10.05;4.38;;;11.50;99.90;;;;;;4998045;28;20038;-60
2022/04/23 01:53:22;;;;;;;8.85;4.45;;;11.50;99.90;;;;;;4993094;28;20034;-60
2022/04/23 01:55:51;;;;;;;10.52;4.78;;;11.40;99.90;;;;;;5001900;28;20040;-61
2022/04/23 01:58:17;;;;;;;12.15;4.55;;;11.40;99.90;;;;;;4998549;28;20030;-63
2022/04/23 02:00:44;;;;;;;11.18;4.45;;;11.40;99.90;;;;;;4996913;28;20143;-61
2022/04/23 02:03:09;;;;;;;10.63;4.78;;;11.40;99.90;;;;;;4993995;28;20034;-60
2022/04/23 02:05:35;;;;;;;9.13;4.50;;;11.40;99.90;;;;;;5000722;28;20042;-61
2022/04/23 02:08:00;;;;;;;11.00;4.22;;;11.30;99.90;;;;;;5000668;28;20049;-62
2022/04/23 02:10:26;;;;;;;11.02;5.18;;;11.30;99.90;;;;;;4999543;28;20088;-61
2022/04/23 02:12:52;;;;;;;9.25;4.70;;;11.20;99.90;;;;;;4998384;28;20169;-61
2022/04/23 02:15:18;;;;;;;8.93;4.63;;;11.20;99.90;;;;;;5001505;28;20066;-60
2022/04/23 02:17:47;;;;;;;10.63;5.13;;;11.20;99.90;;;;;;4997963;28;20061;-61
2022/04/23 02:20:15;;;;;;;9.95;4.93;;;11.20;99.90;;;;;;4996971;28;20069;-62
2022/04/23 02:22:42;;;;;;;9.73;5.07;;;11.20;99.90;;;;;;4993361;28;20742;-61
2022/04/23 02:25:08;;;;;;;9.48;4.95;;;11.20;99.90;;;;;;5001265;28;20030;-61
2022/04/23 02:28:01;;;;;;;11.63;5.07;;;11.20;99.90;;;;;;4998534;28;20042;-61
2022/04/23 02:30:26;;;;;;;11.43;5.47;;;11.20;99.90;;;;;;4994661;28;20095;-60
2022/04/23 02:32:52;;;;;;;11.15;5.13;;;11.20;99.90;;;;;;4998095;28;20034;-61
2022/04/23 02:35:20;;;;;;;10.13;4.90;;;11.20;99.90;;;;;;5001213;28;20046;-62
2022/04/23 02:37:47;;;;;;;9.52;4.40;;;11.20;99.90;;;;;;5001034;28;20034;-60
2022/04/23 02:40:14;;;;;;;11.43;6.22;;;11.20;99.90;;;;;;4998086;28;20558;-63
2022/04/23 02:42:40;;;;;;;13.63;5.88;;;11.30;99.90;;;;;;4996758;28;20395;-62
2022/04/23 02:45:10;;;;;;;15.95;6.07;;;11.30;99.90;;;;;;5000827;28;20034;-62
2022/04/23 02:47:50;;;;;;;15.68;6.50;;;11.30;99.90;;;;;;4997739;28;20034;-61
2022/04/23 02:50:29;;;;;;;13.57;6.30;;;11.40;99.90;;;;;;4994438;28;20088;-61
2022/04/23 02:52:55;;;;;;;12.77;6.80;;;11.40;99.90;;;;;;4998672;28;20044;-60
2022/04/23 02:55:23;;;;;;;11.30;6.32;;;11.30;99.90;;;;;;4998182;28;20038;-61
2022/04/23 02:57:48;;;;;;;18.58;6.07;;;11.30;99.90;;;;;;5000274;28;20375;-61
2022/04/23 03:00:14;;;;;;;13.63;6.15;;;11.30;99.90;;;;;;4997835;28;20026;-62
2022/04/23 03:02:40;;;;;;;12.40;6.18;;;11.40;99.90;;;;;;4998432;28;20456;-62
2022/04/23 03:05:09;;;;;;;11.88;6.35;;;11.40;99.90;;;;;;4997417;28;20027;-61
2022/04/23 03:07:35;;;;;;;12.90;6.00;;;11.40;99.90;;;;;;4999920;28;20042;-63
2022/04/23 03:10:05;;;;;;;12.10;5.90;;;11.40;99.90;;;;;;4998114;28;20551;-62
2022/04/23 03:12:31;;;;;;;12.30;6.35;;;11.50;99.90;;;;;;4998485;28;20046;-63
2022/04/23 03:14:57;;;;;;;11.65;6.63;;;11.50;99.90;;;;;;4998411;28;20072;-62
2022/04/23 03:17:23;;;;;;;14.68;6.85;;;11.40;99.90;;;;;;4998061;28;20407;-63
2022/04/23 03:19:48;;;;;;;11.75;6.50;;;11.50;99.90;;;;;;4999532;28;20045;-62
2022/04/23 03:22:15;;;;;;;13.43;7.28;;;11.40;99.90;;;;;;4997436;28;20484;-61
2022/04/23 03:24:41;;;;;;;17.67;7.18;;;11.50;99.90;;;;;;4997821;28;20461;-62
2022/04/23 03:27:06;;;;;;;14.88;7.35;;;11.40;99.90;;;;;;4997170;28;20061;-62
2022/04/23 03:29:32;;;;;;;12.13;5.72;;;11.40;99.90;;;;;;4998981;28;20481;-62
2022/04/23 03:31:59;;;;;;;12.95;6.70;;;11.40;99.90;;;;;;4997832;28;20143;-62
2022/04/23 03:34:24;;;;;;;13.13;6.82;;;11.30;99.90;;;;;;4996210;28;20030;-62
2022/04/23 03:36:50;;;;;;;20.27;8.73;;;11.30;99.90;;;;;;4997791;28;20034;-62
2022/04/23 03:39:15;;;;;;;14.32;7.07;;;11.30;99.90;;;;;;4997464;28;20138;-61
2022/04/23 03:41:41;;;;;;;15.02;7.25;;;11.30;99.90;;;;;;4999291;28;20076;-61
2022/04/23 03:44:07;;;;;;;16.27;7.63;;;11.20;99.90;;;;;;4992367;28;20073;-62
2022/04/23 03:46:32;;;;;;;13.05;7.15;;;11.10;99.90;;;;;;4999305;28;20065;-61
2022/04/23 03:48:58;;;;;;;14.25;8.13;;;11.20;99.90;;;;;;4997777;28;20046;-61
2022/04/23 03:51:24;;;;;;;15.80;7.10;;;11.20;99.90;;;;;;4997891;28;20520;-61
2022/04/23 03:53:50;;;;;;;16.63;7.80;;;11.10;99.90;;;;;;4998145;28;20168;-62
2022/04/23 03:56:15;;;;;;;13.65;7.35;;;11.10;99.90;;;;;;4997175;28;20045;-62
2022/04/23 03:58:41;;;;;;;15.35;7.35;;;11.00;99.90;;;;;;4999211;28;20033;-62
2022/04/23 04:01:07;;;;;;;17.02;8.20;;;11.10;99.90;;;;;;4996396;28;20092;-62
2022/04/23 04:03:32;;;;;;;18.00;7.95;;;11.10;99.90;;;;;;4999595;28;20038;-61
2022/04/23 04:05:59;;;;;;;13.90;7.40;;;11.00;99.90;;;;;;4998376;28;20031;-62
2022/04/23 04:08:25;;;;;;;13.27;7.00;;;11.00;99.90;;;;;;4997071;28;20042;-62
2022/04/23 04:10:50;;;;;;;14.70;7.78;;;11.00;99.90;;;;;;4997734;28;20391;-62
2022/04/23 04:13:16;;;;;;;14.30;8.05;;;10.90;99.90;;;;;;4994883;28;20502;-62
2022/04/23 04:15:45;;;;;;;16.00;7.63;;;10.90;99.90;;;;;;4998643;28;20026;-61
2022/04/23 04:18:12;;;;;;;12.77;7.43;;;10.90;99.90;;;;;;4995167;28;20133;-62
2022/04/23 04:20:39;;;;;;;13.45;8.15;;;10.90;99.90;;;;;;4995311;28;20326;-61
2022/04/23 04:23:06;;;;;;;17.10;8.43;;;10.80;99.90;;;;;;4991875;28;20034;-62
2022/04/23 04:25:32;;;;;;;14.13;7.57;;;10.80;99.90;;;;;;4998735;28;20046;-61
2022/04/23 04:28:00;;;;;;;18.23;8.27;;;10.70;99.90;;;;;;4996573;28;20121;-63
2022/04/23 04:30:26;;;;;;;15.88;8.57;;;10.80;99.90;;;;;;4997834;28;20050;-61
2022/04/23 04:32:51;;;;;;;15.40;7.50;;;10.70;99.90;;;;;;4996954;28;20030;-61
2022/04/23 04:35:17;;;;;;;22.10;8.35;;;10.70;99.90;;;;;;4997268;28;20038;-62
2022/04/23 04:37:44;;;;;;;15.20;8.27;;;10.70;99.90;;;;;;4998739;28;20041;-62
2022/04/23 04:40:10;;;;;;;17.67;9.48;;;10.70;99.90;;;;;;4996298;28;20033;-62
2022/04/23 04:42:36;;;;;;;15.90;8.80;;;10.70;99.90;;;;;;4996369;28;20084;-62
2022/04/23 04:45:03;;;;;;;18.55;8.90;;;10.60;99.90;;;;;;4996403;28;20084;-61
2022/04/23 04:47:29;;;;;;;16.65;8.48;;;10.60;99.90;;;;;;4998295;28;20041;-61
2022/04/23 04:49:55;;;;;;;15.57;8.15;;;10.60;99.90;;;;;;4996754;28;20137;-62
2022/04/23 04:52:20;;;;;;;16.00;8.52;;;10.50;99.90;;;;;;4997047;28;20038;-62
2022/04/23 04:54:46;;;;;;;17.25;8.73;;;10.50;99.90;;;;;;4997613;28;20030;-61
2022/04/23 04:57:11;;;;;;;16.88;8.27;;;10.50;99.90;;;;;;4996559;28;20168;-62
2022/04/23 04:59:37;;;;;;;17.27;8.30;;;10.50;99.90;;;;;;4998616;28;20627;-61
2022/04/23 05:02:03;;;;;;;18.38;8.63;;;10.40;99.90;;;;;;4995453;28;20037;-61
2022/04/23 05:04:29;;;;;;;21.80;8.55;;;10.50;99.90;;;;;;4998950;28;20072;-62
2022/04/23 05:06:55;;;;;;;14.60;8.35;;;10.40;99.90;;;;;;4998119;28;20135;-62
2022/04/23 05:09:21;;;;;;;16.17;8.77;;;10.40;99.90;;;;;;4997120;28;20042;-62
2022/04/23 05:11:46;;;;;;;15.90;8.82;;;10.40;99.90;;;;;;4996576;28;20030;-62
2022/04/23 05:14:12;;;;;;;16.13;8.55;;;10.40;99.90;;;;;;4998155;28;20058;-62
2022/04/23 05:16:38;;;;;;;18.83;9.38;;;10.40;99.90;;;;;;4995403;28;20069;-62
2022/04/23 05:19:03;;;;;;;16.10;7.95;;;10.40;99.90;;;;;;5001173;28;20395;-62
2022/04/23 05:21:29;;;;;;;15.57;9.15;;;10.50;99.90;;;;;;4998905;28;20045;-61
2022/04/23 05:23:55;;;;;;;16.30;8.82;;;10.50;99.90;;;;;;5001112;28;20034;-61
2022/04/23 05:26:20;;;;;;;18.63;9.27;;;10.50;99.90;;;;;;5000076;28;20046;-61
2022/04/23 05:28:46;;;;;;;17.42;9.02;;;10.50;99.90;;;;;;5000795;28;20042;-61
2022/04/23 05:31:11;;;;;;;18.52;9.27;;;10.50;99.90;;;;;;5001342;28;20049;-62
2022/04/23 05:33:38;;;;;;;15.98;8.63;;;10.60;99.90;;;;;;5001037;28;20054;-61
2022/04/23 05:36:06;;;;;;;16.98;9.85;;;10.60;99.90;;;;;;4999309;28;20034;-61
2022/04/23 05:38:32;;;;;;;17.15;8.95;;;10.70;99.90;;;;;;4995254;28;20030;-65
2022/04/23 05:40:57;;;;;;;15.73;8.88;;;10.70;99.90;;;;;;5001819;28;20066;-61
2022/04/23 05:43:23;;;;;;;18.77;8.75;;;10.70;99.90;;;;;;4998067;28;20062;-61
2022/04/23 05:45:50;;;;;;;15.68;7.68;;;10.80;99.90;;;;;;5000524;28;20049;-61
2022/04/23 05:48:16;;;;;;;16.50;8.68;;;10.90;99.90;;;;;;5000340;28;20042;-61
2022/04/23 05:50:41;;;;;;;14.77;8.07;;;11.00;99.90;;;;;;5001617;28;20049;-62
2022/04/23 05:53:07;;;;;;;15.35;8.10;;;11.20;99.90;;;;;;5001714;28;20167;-60
2022/04/23 05:55:33;;;;;;;15.82;8.15;;;11.90;99.90;;;;;;5001396;28;20030;-63
2022/04/23 05:57:58;;;;;;;12.45;7.43;;;12.80;99.90;;;;;;4993865;28;20043;-61
2022/04/23 06:00:24;;;;;;;16.20;6.93;;;13.70;99.90;;;;;;4992466;28;20033;-60
2022/04/23 06:02:49;;;;;;;15.77;7.35;;;14.20;99.90;;;;;;4998779;28;20384;-60
2022/04/23 06:05:15;;;;;;;9.93;5.78;;;14.80;99.90;;;;;;4995322;28;20144;-61
2022/04/23 06:07:41;;;;;;;12.60;6.32;;;15.30;99.90;;;;;;5000508;28;20771;-61
2022/04/23 06:10:07;;;;;;;11.45;6.20;;;15.80;99.90;;;;;;4996459;28;20076;-61
2022/04/23 06:12:34;;;;;;;10.93;6.30;;;16.10;99.90;;;;;;4995271;28;20026;-61
2022/04/23 06:14:59;;;;;;;10.88;5.72;;;16.50;99.90;;;;;;4994099;28;20042;-61
2022/04/23 06:17:27;;;;;;;8.73;5.25;;;16.50;99.90;;;;;;4996415;28;20030;-61
2022/04/23 06:19:53;;;;;;;9.60;6.03;;;17.10;99.90;;;;;;4997770;28;20056;-61
2022/04/23 06:22:22;;;;;;;10.63;6.07;;;17.10;99.90;;;;;;4998631;28;20482;-61
2022/04/23 06:24:48;;;;;;;12.27;6.03;;;17.30;99.60;;;;;;4999140;28;20501;-63
2022/04/23 06:27:14;;;;;;;8.98;5.53;;;17.30;98.70;;;;;;4999026;28;20474;-61
2022/04/23 06:29:40;;;;;;;11.70;5.63;;;17.50;98.30;;;;;;4992235;28;20103;-61
2022/04/23 06:32:07;;;;;;;10.27;5.20;;;17.50;97.80;;;;;;4999550;28;20062;-62
2022/04/23 06:34:34;;;;;;;8.30;4.95;;;17.90;96.90;;;;;;4996492;28;20038;-62
2022/04/23 06:36:59;;;;;;;9.38;5.10;;;17.90;96.50;;;;;;5000520;28;20048;-61
2022/04/23 06:39:25;;;;;;;7.78;4.45;;;18.00;96.40;;;;;;4996901;28;20845;-61
2022/04/23 06:41:51;;;;;;;6.28;4.10;;;18.40;95.80;;;;;;5000688;28;20116;-61
2022/04/23 06:44:16;;;;;;;7.80;4.32;;;18.70;94.80;;;;;;4998437;28;20042;-61
2022/04/23 06:46:42;;;;;;;8.80;4.65;;;19.10;94.50;;;;;;4997676;28;20490;-63
2022/04/23 06:49:08;;;;;;;9.32;5.05;;;19.20;93.10;;;;;;4997229;28;20044;-61
2022/04/23 06:51:37;;;;;;;8.90;4.22;;;19.30;93.10;;;;;;4995834;28;20034;-62
2022/04/23 06:54:03;;;;;;;10.35;4.38;;;19.50;92.30;;;;;;4998785;28;20036;-61
2022/04/23 06:56:30;;;;;;;7.90;4.97;;;19.70;91.60;;;;;;4995809;28;20506;-62
2022/04/23 06:58:55;;;;;;;6.70;3.92;;;20.00;90.80;;;;;;4992855;28;20042;-63
2022/04/23 07:01:21;;;;;;;7.03;4.25;;;19.70;90.80;;;;;;4998173;28;20045;-63
2022/04/23 07:03:46;;;;;;;7.90;5.18;;;19.60;90.60;;;;;;4996687;28;20403;-62
2022/04/23 07:06:12;;;;;;;7.28;4.20;;;19.40;91.40;;;;;;4995521;28;20038;-61
2022/04/23 07:08:40;;;;;;;6.45;4.05;;;19.50;90.90;;;;;;4996466;28;20960;-63
2022/04/23 07:11:06;;;;;;;6.88;5.13;;;19.70;90.70;;;;;;4999289;28;20026;-62
2022/04/23 07:13:32;;;;;;;7.05;4.82;;;20.00;90.00;;;;;;4994873;28;20042;-62
2022/04/23 07:15:58;;;;;;;8.40;4.70;;;19.60;90.00;;;;;;4999501;28;20034;-62
2022/04/23 07:18:24;;;;;;;8.75;5.35;;;19.80;89.50;;;;;;4995974;28;20034;-62
2022/04/23 07:20:49;;;;;;;7.70;4.68;;;20.20;88.90;;;;;;4993613;28;20030;-62
2022/04/23 07:25:59;;;;;;;11.52;5.47;;;20.00;86.70;;;;;;4992984;28;20620;-61
2022/04/23 07:28:25;;;;;;;8.07;4.68;;;19.80;88.00;;;;;;4995657;28;20117;-62
2022/04/23 07:30:51;;;;;;;11.85;4.88;;;19.50;87.40;;;;;;4991637;28;20030;-61
2022/04/23 07:38:45;;;;;;;8.80;5.25;;;18.80;90.00;;;;;;4996455;28;20032;-63
2022/04/23 07:41:11;;;;;;;9.23;5.60;;;18.40;90.60;;;;;;4996647;28;20042;-61
2022/04/23 07:43:37;;;;;;;9.48;5.63;;;18.10;90.90;;;;;;4984615;28;20026;-62
2022/04/23 07:46:03;;;;;;;8.02;4.85;;;18.00;91.40;;;;;;4991703;28;20080;-61
2022/04/23 07:48:28;;;;;;;14.55;5.82;;;17.50;91.80;;;;;;4992656;28;20438;-62
2022/04/23 07:50:54;;;;;;;10.60;5.60;;;17.50;92.20;;;;;;4995179;28;20443;-62
2022/04/23 07:53:19;;;;;;;9.30;5.80;;;17.50;92.10;;;;;;4988902;28;20030;-63
2022/04/23 07:55:45;;;;;;;9.18;5.78;;;17.30;92.60;;;;;;4994894;28;20495;-62
2022/04/23 07:58:11;;;;;;;8.90;5.22;;;17.10;92.60;;;;;;4996670;28;20097;-62
2022/04/23 08:00:38;;;;;;;10.00;5.47;;;16.90;93.10;;;;;;4995633;28;20474;-61
2022/04/23 08:03:04;;;;;;;7.95;5.20;;;17.10;93.40;;;;;;4997986;28;20053;-62
2022/04/23 08:05:30;;;;;;;9.00;5.05;;;16.80;93.40;;;;;;4995944;28;20040;-60
2022/04/23 08:07:56;;;;;;;11.45;6.72;;;16.70;93.80;;;;;;4999552;28;20497;-61
2022/04/23 08:10:22;;;;;;;11.77;5.80;;;16.60;94.00;;;;;;4992093;28;20035;-62
2022/04/23 08:12:47;;;;;;;11.93;5.65;;;16.70;94.30;;;;;;4998119;28;20081;-62
2022/04/23 08:15:13;;;;;;;11.43;5.75;;;16.60;93.90;;;;;;4989982;28;20604;-64
2022/04/23 08:17:39;;;;;;;9.77;5.38;;;16.70;93.90;;;;;;4990367;28;20100;-62
2022/04/23 08:20:06;;;;;;;11.38;6.20;;;16.90;93.80;;;;;;4989345;28;20398;-61
2022/04/23 08:22:32;;;;;;;8.90;5.47;;;16.80;93.60;;;;;;4986124;28;20030;-61
2022/04/23 08:24:57;;;;;;;12.35;5.50;;;16.80;94.00;;;;;;4991475;28;20032;-61
2022/04/23 08:27:23;;;;;;;9.85;6.13;;;17.00;93.90;;;;;;4988424;28;20034;-62
2022/04/23 08:32:34;;;;;;;9.93;5.53;;;17.00;93.20;;;;;;4994001;28;20037;-62
2022/04/23 08:34:59;;;;;;;9.27;5.20;;;17.10;93.20;;;;;;4998893;28;20042;-61
2022/04/23 08:37:25;;;;;;;11.10;6.22;;;17.20;92.90;;;;;;4995709;28;20093;-62
2022/04/23 08:39:51;;;;;;;7.60;4.80;;;17.10;93.10;;;;;;5000068;28;20102;-63
2022/04/23 08:42:19;;;;;;;10.18;5.53;;;17.20;93.20;;;;;;4997126;28;20414;-62
2022/04/23 08:44:45;;;;;;;11.45;5.63;;;17.00;93.10;;;;;;4995784;28;20042;-62
2022/04/23 08:47:11;;;;;;;10.98;5.63;;;17.00;93.50;;;;;;4997892;28;20125;-62
2022/04/23 08:49:40;;;;;;;10.38;5.68;;;16.90;93.30;;;;;;4996883;28;20073;-61
2022/04/23 08:52:17;;;;;;;9.82;5.38;;;16.90;94.10;;;;;;4998135;28;20031;-61
2022/04/23 08:54:43;;;;;;;9.48;5.07;;;16.90;93.90;;;;;;4999376;28;20187;-63
2022/04/23 08:57:09;;;;;;;10.82;6.03;;;17.00;93.30;;;;;;5002095;28;20026;-61
2022/04/23 08:59:36;;;;;;;8.57;4.95;;;16.80;93.40;;;;;;4998642;28;20035;-63
2022/04/23 09:02:07;;;;;;;8.23;4.80;;;16.90;93.80;;;;;;4999018;28;20126;-62
2022/04/23 09:04:33;;;;;;;10.43;5.30;;;17.00;93.70;;;;;;4999487;28;20092;-62
2022/04/23 09:06:58;;;;;;;11.60;5.50;;;17.30;93.40;;;;;;4990380;28;20422;-61
2022/04/23 09:09:25;;;;;;;12.25;5.28;;;17.30;92.90;;;;;;4996508;28;20489;-63
2022/04/23 09:11:56;;;;;;;10.45;5.55;;;17.30;92.80;;;;;;4989969;28;20029;-62
2022/04/23 09:14:24;;;;;;;12.10;5.50;;;17.40;92.60;;;;;;4988288;28;20467;-63
2022/04/23 09:25:13;;;;;;;9.43;5.57;;;17.40;92.30;;;;;;4996175;28;20505;-63
2022/04/23 09:27:43;;;;;;;10.13;5.10;;;17.30;92.20;;;;;;4991186;28;20631;-61
2022/04/23 09:30:13;;;;;;;12.93;5.70;;;17.20;92.50;;;;;;4993499;28;20035;-62
2022/04/23 09:32:56;;;;;;;10.05;5.63;;;17.20;92.60;;;;;;4990119;28;22269;-61
2022/04/23 09:35:22;;;;;;;11.10;5.97;;;17.30;92.50;;;;;;4989813;28;20035;-64
2022/04/23 09:40:32;;;;;;;12.55;6.38;;;17.40;92.20;;;;;;4997112;28;20563;-62
2022/04/23 09:43:10;;;;;;;10.10;5.13;;;17.50;92.10;;;;;;4995830;28;20155;-62
2022/04/23 09:45:43;;;;;;;12.70;5.72;;;17.30;92.40;;;;;;4991812;28;20046;-61
2022/04/23 09:48:12;;;;;;;14.20;5.72;;;17.20;92.50;;;;;;4994766;28;20049;-63
2022/04/23 09:50:42;;;;;;;11.35;5.78;;;17.20;92.50;;;;;;4997883;28;20053;-63
2022/04/23 09:53:15;;;;;;;9.77;5.53;;;17.00;92.80;;;;;;4996238;28;20030;-62
2022/04/23 09:55:41;;;;;;;12.57;6.18;;;17.10;93.10;;;;;;4999540;28;20402;-61
2022/04/23 09:58:08;;;;;;;12.65;6.18;;;17.40;93.00;;;;;;4998430;28;20036;-61
2022/04/23 10:00:39;;;;;;;11.82;5.60;;;17.70;92.50;;;;;;4998682;28;20030;-63
2022/04/23 10:03:08;;;;;;;;;;;18.00;91.80;;;;;;4998849;28;20110;-62
2022/04/23 10:05:39;;;;;;;11.20;6.30;;;18.30;92.00;;;;;;4996675;28;19917;-61
2022/04/23 10:08:16;;;;;;;13.05;6.28;;;18.50;90.70;;;;;;4999039;28;20502;-63
2022/04/23 10:10:54;;;;;;;8.80;5.65;;;18.60;90.50;;;;;;4999907;28;20115;-61
2022/04/23 10:13:22;;;;;;;9.02;5.30;;;18.70;90.40;;;;;;4993109;28;20614;-64
2022/04/23 10:15:49;;;;;;;9.82;5.30;;;18.70;90.00;;;;;;5000492;28;20026;-61
2022/04/23 10:18:15;;;;;;;10.43;5.63;;;18.80;89.90;;;;;;4993699;28;20124;-62
2022/04/23 10:20:52;;;;;;;10.75;5.55;;;18.80;89.40;;;;;;4999965;28;20507;-63
2022/04/23 10:23:42;;;;;;;10.02;5.50;;;18.60;90.30;;;;;;4993361;28;20046;-62
2022/04/23 10:26:33;;;;;;;12.98;6.30;;;18.40;90.40;;;;;;4999345;28;20038;-62
2022/04/23 10:29:00;;;;;;;14.48;6.20;;;18.20;90.60;;;;;;4993754;28;20045;-61
2022/04/23 10:31:25;;;;;;;10.90;5.28;;;18.30;90.30;;;;;;4993151;28;20037;-62
2022/04/23 10:33:53;;;;;;;14.52;6.07;;;18.30;90.30;;;;;;4996045;28;20053;-62
2022/04/23 10:36:21;;;;;;;9.27;5.32;;;18.20;90.60;;;;;;4998711;28;20038;-63
2022/04/23 10:38:51;;;;;;;8.68;5.30;;;18.30;90.60;;;;;;4995805;28;20038;-61
2022/04/23 10:41:19;;;;;;;12.43;6.10;;;18.40;90.20;;;;;;4990548;28;20042;-62
2022/04/23 10:43:47;;;;;;;10.02;5.72;;;18.40;90.40;;;;;;4992531;28;20050;-62
2022/04/23 10:46:37;;;;;;;12.75;6.30;;;18.40;90.60;;;;;;4991997;28;20026;-60
2022/04/23 10:49:14;;;;;;;11.63;6.10;;;18.40;90.20;;;;;;4997505;28;20526;-61
2022/04/23 10:51:50;;;;;;;11.90;5.55;;;18.40;90.10;;;;;;4998126;28;20092;-61
2022/04/23 10:54:19;;;;;;;16.80;6.65;;;18.30;90.70;;;;;;4993730;28;20041;-62
2022/04/23 10:56:53;;;;;;;10.60;5.82;;;18.50;90.30;;;;;;5001355;28;20030;-62
2022/04/23 10:59:42;;;;;;;13.95;6.32;;;18.20;90.20;;;;;;4995178;28;20053;-66
2022/04/23 11:02:20;;;;;;;12.55;5.82;;;18.00;90.50;;;;;;4998237;28;20491;-61
2022/04/23 11:13:31;;;;;;;14.43;5.82;;;17.70;90.90;;;;;;4997144;28;20081;-61
2022/04/23 11:16:10;;;;;;;13.32;6.47;;;17.90;91.20;;;;;;4999278;28;20026;-61
2022/04/23 11:18:37;;;;;;;12.70;6.03;;;18.10;90.30;;;;;;4999592;28;20046;-62
2022/04/23 11:21:12;;;;;;;10.73;5.90;;;18.20;90.40;;;;;;4998504;28;20040;-62
2022/04/23 11:23:42;;;;;;;11.15;5.38;;;18.10;89.80;;;;;;4999587;28;20034;-61
2022/04/23 11:26:12;;;;;;;14.57;6.90;;;18.20;90.10;;;;;;4997708;28;20085;-62
2022/04/23 11:28:39;;;;;;;10.05;5.85;;;18.00;89.40;;;;;;5000571;28;20026;-62
2022/04/23 11:31:10;;;;;;;10.85;5.97;;;18.00;89.80;;;;;;4998937;28;20069;-62
2022/04/23 11:33:36;;;;;;;16.45;6.43;;;18.10;90.20;;;;;;4999037;28;20057;-61
2022/04/23 11:36:02;;;;;;;12.13;6.38;;;18.50;89.40;;;;;;4997938;28;20060;-61
2022/04/23 11:38:29;;;;;;;11.23;5.95;;;18.60;88.50;;;;;;4998260;28;20035;-62
2022/04/23 11:40:54;;;;;;;14.05;5.88;;;18.70;88.10;;;;;;4998740;28;20038;-61
2022/04/23 11:43:34;;;;;;;11.60;6.00;;;18.80;89.20;;;;;;4998888;28;20068;-62
2022/04/23 11:46:07;;;;;;;10.25;5.43;;;18.80;87.30;;;;;;4999072;28;20384;-62
2022/04/23 11:48:44;;;;;;;10.73;5.30;;;18.60;88.00;;;;;;4996776;28;20048;-61
2022/04/23 11:51:13;;;;;;;9.60;5.28;;;18.60;88.50;;;;;;4992664;28;20030;-61
2022/04/23 11:53:49;;;;;;;11.48;6.18;;;18.70;88.50;;;;;;4999419;28;20030;-61
2022/04/23 11:56:23;;;;;;;14.32;6.00;;;18.70;87.40;;;;;;4993585;28;20084;-61
2022/04/23 11:58:51;;;;;;;14.10;6.03;;;18.90;87.90;;;;;;4999426;28;20550;-62
2022/04/23 12:01:16;;;;;;;16.75;7.03;;;18.90;87.60;;;;;;4996670;28;20494;-62
2022/04/23 12:03:53;;;;;;;12.93;5.82;;;18.80;86.40;;;;;;4999084;28;20026;-62
2022/04/23 12:06:19;;;;;;;11.23;5.57;;;18.80;86.00;;;;;;4993697;28;20034;-61
2022/04/23 12:08:44;;;;;;;12.65;6.45;;;18.70;86.00;;;;;;4999628;28;20115;-62
2022/04/23 12:11:29;;;;;;;12.30;5.60;;;18.50;85.90;;;;;;5000308;28;20037;-61
2022/04/23 12:13:55;;;;;;;13.75;6.32;;;18.50;86.60;;;;;;4995801;28;20030;-63
2022/04/23 12:16:31;;;;;;;13.88;6.03;;;18.60;86.90;;;;;;4996752;28;20100;-62
2022/04/23 12:19:12;;;;;;;14.23;6.78;;;18.70;86.60;;;;;;4997952;28;20042;-61
2022/04/23 12:21:39;;;;;;;10.45;5.95;;;18.70;86.40;;;;;;4992118;28;20099;-61
2022/04/23 12:24:07;;;;;;;21.25;6.60;;;18.70;85.90;;;;;;4998959;28;20034;-62
2022/04/23 12:26:35;;;;;;;13.57;6.18;;;18.70;86.20;;;;;;4996304;28;20041;-61
2022/04/23 12:43:13;;;;;;;15.90;5.95;;;18.90;85.30;;;;;;4995531;28;20501;-61
2022/04/23 12:45:41;;;;;;;16.73;5.97;;;18.80;85.20;;;;;;4992403;28;20498;-61
2022/04/23 12:48:07;;;;;;;11.57;6.00;;;18.80;85.20;;;;;;4992177;28;20101;-61
2022/04/23 12:50:33;;;;;;;12.45;6.20;;;18.70;85.50;;;;;;4998340;28;20449;-61
2022/04/23 12:52:59;;;;;;;11.07;5.90;;;18.70;86.10;;;;;;4996210;28;20041;-61
2022/04/23 12:55:29;;;;;;;12.70;6.85;;;18.80;86.00;;;;;;4997563;28;20035;-61
2022/04/23 12:58:04;;;;;;;15.88;6.03;;;18.80;85.70;;;;;;4997278;28;20037;-61
2022/04/23 13:00:42;;;;;;;11.63;6.13;;;18.80;85.00;;;;;;4997393;28;20034;-63
2022/04/23 13:03:25;;;;;;;9.95;5.35;;;18.80;84.40;;;;;;4991926;28;20454;-61
2022/04/23 13:05:51;;;;;;;12.73;6.82;;;18.80;84.70;;;;;;4994365;28;20046;-63
2022/04/23 13:11:24;;;;;;;14.70;5.75;;;18.70;84.20;;;;;;4998168;28;20398;-62
2022/04/23 13:13:46;;;;;;;13.60;5.70;;;18.70;84.50;;;;;;4993416;28;20116;-62
2022/04/23 13:16:12;;;;;;;13.25;6.63;;;18.80;84.40;;;;;;4998838;28;20065;-62
2022/04/23 13:18:38;;;;;;;13.20;6.95;;;18.80;84.80;;;;;;4995354;28;20038;-61
2022/04/23 13:21:05;;;;;;;15.85;6.90;;;18.90;83.30;;;;;;4998990;28;20041;-61
2022/04/23 13:23:31;;;;;;;13.02;6.20;;;18.80;83.60;;;;;;4995037;28;20030;-62
2022/04/23 13:25:57;;;;;;;15.57;6.00;;;18.80;83.90;;;;;;4998333;28;20115;-63
2022/04/23 13:28:25;;;;;;;17.20;6.93;;;18.90;83.10;;;;;;4996589;28;20535;-62
2022/04/23 13:30:51;;;;;;;12.65;6.18;;;19.00;82.70;;;;;;4997443;28;20043;-62